CYBN

CFB Borden Heliport

Borden, Ontario, Canada

CYBN 200343Z AUTO 00000KT 1/8SM BKN001 BKN061 BKN069 18/18 A3002

Observed Flight Rules
Sep-20 @ 03:43 UTC (20 minutes ago)
 
Low Instrument Flight Rules
Wind Visibility Clouds
Calm 1/13 miles
  • Broken at 100' AGL
  • Broken at 6,100' AGL
  • Broken at 6,900' AGL
Temperatures Readings
Current 18°C / 64°F
Dewpoint 18°C / 64°F
Humidity 100%
Altimeter 30.02" Hg
Pressure 1017 hPa
Elevation 223
Observed Flight Rules
Sep-20 @ 03:43 UTC
(20 minutes ago)
 
LIFR
Wind Visibility
Calm 1/13 miles
Clouds
  • Broken at 100' AGL
  • Broken at 6,100' AGL
  • Broken at 6,900' AGL
Temperature Dewpoint
18°C / 64°F 18°C / 64°F
Humidity Altimeter Pressure
100% 30.02" Hg 1017 hPa